Time;durP1;ratioP1;P1;durP2;ratioP2;P2;SDS_P1;SDS_P2;PMS_P1;PMS_P2;Temp;Humidity;BMP_temperature;BMP_pressure;BME280_temperature;BME280_humidity;BME280_pressure;Samples;Min_cycle;Max_cycle;Signal;HPM_P1;HPM_P2
2022/03/19 00:00:49;;;;;;;14.23;4.30;;;3.70;99.90;;;;;;5012716;28;20545;-76
2022/03/19 00:03:15;;;;;;;12.32;4.20;;;3.60;99.90;;;;;;5024182;28;20045;-76
2022/03/19 00:05:40;;;;;;;18.63;4.45;;;3.50;99.90;;;;;;5068319;28;20040;-76
2022/03/19 00:08:06;;;;;;;13.02;4.68;;;3.50;99.90;;;;;;5021402;28;20115;-76
2022/03/19 00:10:32;;;;;;;14.23;4.85;;;3.50;99.90;;;;;;5022630;28;20083;-77
2022/03/19 00:12:59;;;;;;;19.23;5.35;;;3.40;99.90;;;;;;5056595;28;20084;-75
2022/03/19 00:15:25;;;;;;;16.25;4.30;;;3.40;99.90;;;;;;5033648;28;20081;-76
2022/03/19 00:17:53;;;;;;;13.10;4.30;;;3.40;99.90;;;;;;5006423;28;20122;-76
2022/03/19 00:20:20;;;;;;;13.43;4.88;;;3.40;99.90;;;;;;5030241;28;20033;-76
2022/03/19 00:22:46;;;;;;;11.32;4.85;;;3.30;99.90;;;;;;5032744;28;20044;-76
2022/03/19 00:25:12;;;;;;;12.10;3.80;;;3.40;99.90;;;;;;5013527;28;20425;-76
2022/03/19 00:27:40;;;;;;;12.85;4.47;;;3.30;99.90;;;;;;5032794;28;20029;-76
2022/03/19 00:30:07;;;;;;;9.75;3.90;;;3.20;99.90;;;;;;5046860;28;20060;-77
2022/03/19 00:32:33;;;;;;;19.63;4.88;;;3.20;99.90;;;;;;5032974;28;20080;-76
2022/03/19 00:34:58;;;;;;;12.55;4.43;;;3.20;99.90;;;;;;5076864;28;20044;-76
2022/03/19 00:37:24;;;;;;;10.57;4.47;;;3.10;99.90;;;;;;5033400;28;20044;-76
2022/03/19 00:39:50;;;;;;;17.08;4.20;;;3.00;99.90;;;;;;5030712;28;20071;-76
2022/03/19 00:42:16;;;;;;;12.05;3.75;;;3.00;99.90;;;;;;5032795;28;20076;-76
2022/03/19 00:44:43;;;;;;;13.40;4.78;;;3.00;99.90;;;;;;5030685;28;20044;-76
2022/03/19 00:47:09;;;;;;;15.90;4.05;;;3.00;99.90;;;;;;5048563;28;20383;-76
2022/03/19 00:49:34;;;;;;;15.52;4.53;;;3.00;99.90;;;;;;5028707;28;20063;-76
2022/03/19 00:52:00;;;;;;;19.70;4.68;;;3.00;99.90;;;;;;5047134;28;20487;-76
2022/03/19 00:54:26;;;;;;;14.85;4.13;;;3.00;99.90;;;;;;5049135;28;20044;-76
2022/03/19 00:56:52;;;;;;;16.52;4.72;;;3.00;99.90;;;;;;5012721;28;20071;-76
2022/03/19 00:59:17;;;;;;;19.65;5.90;;;3.00;99.90;;;;;;5033120;28;20123;-76
2022/03/19 01:01:43;;;;;;;12.32;4.10;;;2.90;99.90;;;;;;5029776;28;20117;-76
2022/03/19 01:04:09;;;;;;;16.17;4.30;;;2.90;99.90;;;;;;5048539;28;20658;-76
2022/03/19 01:06:34;;;;;;;19.10;5.35;;;3.00;99.90;;;;;;5032302;28;20037;-76
2022/03/19 01:09:00;;;;;;;13.63;4.68;;;3.00;99.90;;;;;;5030152;28;20045;-76
2022/03/19 01:11:26;;;;;;;17.50;4.72;;;3.10;99.90;;;;;;5033486;28;20037;-76
2022/03/19 01:13:52;;;;;;;11.40;4.30;;;2.90;99.90;;;;;;5013290;28;20037;-76
2022/03/19 01:16:19;;;;;;;13.10;4.60;;;3.00;99.90;;;;;;5041284;28;20110;-77
2022/03/19 01:18:49;;;;;;;9.75;3.90;;;2.90;99.90;;;;;;5046394;28;20056;-76
2022/03/19 01:21:15;;;;;;;15.52;4.95;;;2.80;99.90;;;;;;5045090;28;20045;-76
2022/03/19 01:23:41;;;;;;;17.88;5.57;;;2.80;99.90;;;;;;5030867;28;20049;-76
2022/03/19 01:26:07;;;;;;;14.05;4.60;;;2.80;99.90;;;;;;5029929;28;20056;-76
2022/03/19 01:28:33;;;;;;;18.88;5.47;;;2.80;99.90;;;;;;5043940;28;20033;-76
2022/03/19 01:30:59;;;;;;;19.02;4.43;;;2.80;99.90;;;;;;5031654;28;20479;-76
2022/03/19 01:33:24;;;;;;;15.07;4.78;;;2.70;99.90;;;;;;5047656;28;20418;-76
2022/03/19 01:35:50;;;;;;;12.43;4.30;;;2.70;99.90;;;;;;5013885;28;20041;-76
2022/03/19 01:38:16;;;;;;;14.90;5.13;;;2.70;99.90;;;;;;5047689;28;20037;-76
2022/03/19 01:40:42;;;;;;;13.75;4.10;;;2.70;99.90;;;;;;5031809;28;20041;-76
2022/03/19 01:43:08;;;;;;;16.23;4.90;;;2.60;99.90;;;;;;5031308;28;20072;-76
2022/03/19 01:45:33;;;;;;;15.90;4.70;;;2.60;99.90;;;;;;5031395;28;20264;-76
2022/03/19 01:47:59;;;;;;;19.25;5.25;;;2.60;99.90;;;;;;5032063;28;20265;-76
2022/03/19 01:50:26;;;;;;;16.33;5.53;;;2.60;99.90;;;;;;5029264;28;20045;-76
2022/03/19 01:52:52;;;;;;;13.50;4.03;;;2.60;99.90;;;;;;5046515;28;20072;-76
2022/03/19 01:55:21;;;;;;;16.20;4.55;;;2.60;99.90;;;;;;5046527;28;20105;-76
2022/03/19 01:57:48;;;;;;;14.63;4.90;;;2.70;99.90;;;;;;5047214;28;20198;-76
2022/03/19 02:00:17;;;;;;;15.10;4.38;;;2.50;99.90;;;;;;5044333;28;20037;-76
2022/03/19 02:02:44;;;;;;;14.07;4.35;;;2.50;99.90;;;;;;5030427;28;20040;-76
2022/03/19 02:05:14;;;;;;;13.05;5.05;;;2.50;99.90;;;;;;5029172;28;20055;-76
2022/03/19 02:07:41;;;;;;;14.57;4.38;;;2.40;99.90;;;;;;5036220;28;20037;-76
2022/03/19 02:10:08;;;;;;;12.73;4.53;;;2.40;99.90;;;;;;5030572;28;20538;-76
2022/03/19 02:12:33;;;;;;;14.70;4.60;;;2.30;99.90;;;;;;5032185;28;20521;-76
2022/03/19 02:14:59;;;;;;;15.57;4.40;;;2.30;99.90;;;;;;5047428;28;20045;-76
2022/03/19 02:17:26;;;;;;;17.13;4.72;;;2.30;99.90;;;;;;5018856;28;20084;-76
2022/03/19 02:19:54;;;;;;;15.38;5.05;;;2.30;99.90;;;;;;5011233;28;20268;-76
2022/03/19 02:22:21;;;;;;;15.10;4.80;;;2.30;99.90;;;;;;5075618;28;20451;-76
2022/03/19 02:27:33;;;;;;;8.57;3.85;;;2.20;99.90;;;;;;5044355;28;20549;-76
2022/03/19 02:29:59;;;;;;;16.83;5.10;;;2.10;99.90;;;;;;5046824;28;20640;-76
2022/03/19 02:32:25;;;;;;;17.13;4.80;;;2.10;99.90;;;;;;5046002;28;20049;-76
2022/03/19 02:34:55;;;;;;;12.68;4.30;;;2.10;99.90;;;;;;5046663;28;20033;-76
2022/03/19 02:37:21;;;;;;;15.98;4.72;;;2.10;99.90;;;;;;5025955;28;20036;-76
2022/03/19 02:39:47;;;;;;;14.93;4.45;;;2.10;99.90;;;;;;5047765;28;20180;-76
2022/03/19 02:42:17;;;;;;;13.40;4.93;;;2.10;99.90;;;;;;5029013;28;20037;-76
2022/03/19 02:44:42;;;;;;;13.27;4.35;;;2.10;99.90;;;;;;5025697;28;20068;-76
2022/03/19 02:47:08;;;;;;;12.45;4.78;;;2.00;99.90;;;;;;5043658;28;20471;-76
2022/03/19 02:49:35;;;;;;;19.95;4.97;;;2.00;99.90;;;;;;5028102;28;20048;-76
2022/03/19 02:52:01;;;;;;;19.75;5.22;;;2.00;99.90;;;;;;5027985;28;20041;-76
2022/03/19 02:54:29;;;;;;;20.33;5.80;;;2.00;99.90;;;;;;5037339;28;20094;-76
2022/03/19 02:56:56;;;;;;;12.55;4.68;;;1.90;99.90;;;;;;5027393;28;20071;-76
2022/03/19 02:59:23;;;;;;;16.15;4.78;;;1.90;99.90;;;;;;5045254;28;20060;-78
2022/03/19 03:02:04;;;;;;;9.32;4.13;;;1.90;99.90;;;;;;5070730;28;20045;-76
2022/03/19 03:04:30;;;;;;;18.58;5.18;;;1.90;99.90;;;;;;5044794;28;20040;-76
2022/03/19 03:06:58;;;;;;;17.27;5.57;;;2.00;99.90;;;;;;5028284;28;20045;-77
2022/03/19 03:09:26;;;;;;;16.85;5.47;;;1.80;99.90;;;;;;5047499;28;20102;-77
2022/03/19 03:11:52;;;;;;;16.55;5.50;;;1.80;99.90;;;;;;5029739;28;20037;-76
2022/03/19 03:14:20;;;;;;;13.80;5.18;;;1.90;99.90;;;;;;5071361;28;20037;-77
2022/03/19 03:16:48;;;;;;;15.70;5.20;;;1.90;99.90;;;;;;5041106;28;20048;-76
2022/03/19 03:19:15;;;;;;;14.35;5.43;;;1.80;99.90;;;;;;5028462;28;20041;-76
2022/03/19 03:21:43;;;;;;;18.10;5.50;;;1.80;99.90;;;;;;5060821;28;20057;-77
2022/03/19 03:24:10;;;;;;;12.85;5.10;;;1.70;99.90;;;;;;5025862;28;20474;-76
2022/03/19 03:26:37;;;;;;;17.50;5.30;;;1.70;99.90;;;;;;5036333;28;20096;-77
2022/03/19 03:29:04;;;;;;;26.55;5.20;;;1.70;99.90;;;;;;5033309;28;20071;-76
2022/03/19 03:31:30;;;;;;;10.98;5.18;;;1.60;99.90;;;;;;5046415;28;20036;-76
2022/03/19 03:33:56;;;;;;;15.52;5.13;;;1.60;99.90;;;;;;5030672;28;20051;-76
2022/03/19 03:36:22;;;;;;;17.73;5.15;;;1.60;99.90;;;;;;5018126;28;20083;-76
2022/03/19 03:38:48;;;;;;;10.68;5.68;;;1.60;99.90;;;;;;5045092;28;20041;-76
2022/03/19 03:41:14;;;;;;;19.00;6.32;;;1.60;99.90;;;;;;5011712;28;20068;-76
2022/03/19 03:43:40;;;;;;;15.85;5.32;;;1.50;99.90;;;;;;5027056;28;20071;-76
2022/03/19 03:46:05;;;;;;;14.07;4.78;;;1.60;99.90;;;;;;5012281;28;20044;-76
2022/03/19 03:48:35;;;;;;;11.07;5.55;;;1.60;99.90;;;;;;5029079;28;20103;-76
2022/03/19 03:51:01;;;;;;;20.80;6.03;;;1.50;99.90;;;;;;5044058;28;20044;-76
2022/03/19 03:53:28;;;;;;;17.75;5.13;;;1.40;99.90;;;;;;5046244;28;20132;-76
2022/03/19 03:55:54;;;;;;;14.07;5.35;;;1.40;99.90;;;;;;5012483;28;20403;-76
2022/03/19 03:58:20;;;;;;;14.95;5.10;;;1.40;99.90;;;;;;5029387;28;20502;-76
2022/03/19 04:00:46;;;;;;;16.75;5.07;;;1.30;99.90;;;;;;5044878;28;20080;-76
2022/03/19 04:03:12;;;;;;;18.42;5.10;;;1.30;99.90;;;;;;5043975;28;20407;-76
2022/03/19 04:05:38;;;;;;;18.00;5.30;;;1.30;99.90;;;;;;5028328;28;20041;-76
2022/03/19 04:08:04;;;;;;;15.68;4.95;;;1.30;99.90;;;;;;5026464;28;20045;-76
2022/03/19 04:10:31;;;;;;;11.75;5.15;;;1.20;99.90;;;;;;5044501;28;20033;-76
2022/03/19 04:12:58;;;;;;;9.65;4.55;;;1.20;99.90;;;;;;5026977;28;20119;-77
2022/03/19 04:15:23;;;;;;;14.20;4.85;;;1.50;99.90;;;;;;5010537;28;20098;-76
2022/03/19 04:17:49;;;;;;;16.70;5.78;;;1.50;99.90;;;;;;5038466;28;20067;-76
2022/03/19 04:20:16;;;;;;;9.63;4.90;;;1.20;99.90;;;;;;5009873;28;20486;-76
2022/03/19 04:22:47;;;;;;;17.60;5.65;;;1.50;99.90;;;;;;5045267;28;20045;-76
2022/03/19 04:25:16;;;;;;;14.05;5.30;;;1.30;99.90;;;;;;5048321;28;20068;-76
2022/03/19 04:27:44;;;;;;;15.20;5.38;;;1.10;99.90;;;;;;5030842;28;20076;-76
2022/03/19 04:30:14;;;;;;;16.58;5.30;;;1.10;99.90;;;;;;5031027;28;20123;-76
2022/03/19 04:32:54;;;;;;;15.73;5.25;;;1.10;99.90;;;;;;5049401;28;20526;-76
2022/03/19 04:38:10;;;;;;;14.57;5.13;;;1.00;99.90;;;;;;5036674;28;20064;-76
2022/03/19 04:40:37;;;;;;;15.35;6.00;;;1.00;99.90;;;;;;5033027;28;20037;-76
2022/03/19 04:43:03;;;;;;;14.15;5.28;;;1.30;99.90;;;;;;5033354;28;20102;-76
2022/03/19 04:45:29;;;;;;;17.13;5.55;;;0.90;99.90;;;;;;5016282;28;20044;-76
2022/03/19 04:47:55;;;;;;;14.85;5.70;;;0.90;99.90;;;;;;5031439;28;20033;-76
2022/03/19 04:50:22;;;;;;;17.15;6.05;;;0.90;99.90;;;;;;5045858;28;20154;-76
2022/03/19 04:52:48;;;;;;;22.25;6.22;;;0.80;99.90;;;;;;5048431;28;20083;-76
2022/03/19 04:55:14;;;;;;;14.77;6.35;;;1.00;99.90;;;;;;5048706;28;20041;-76
2022/03/19 04:57:40;;;;;;;14.30;5.90;;;0.80;99.90;;;;;;5024236;28;20038;-76
2022/03/19 05:00:08;;;;;;;10.88;4.93;;;0.90;99.90;;;;;;5030776;28;20490;-76
2022/03/19 05:02:34;;;;;;;14.70;5.53;;;0.80;99.90;;;;;;5015693;28;20060;-76
2022/03/19 05:05:00;;;;;;;16.23;5.10;;;1.10;99.90;;;;;;5016269;28;20487;-76
2022/03/19 05:07:27;;;;;;;13.65;5.68;;;0.80;99.90;;;;;;5048540;28;20037;-76
2022/03/19 05:12:43;;;;;;;13.68;5.93;;;1.00;99.90;;;;;;5030941;28;20576;-76
2022/03/19 05:15:14;;;;;;;14.05;5.15;;;0.80;99.90;;;;;;5047391;28;20052;-76
2022/03/19 05:17:40;;;;;;;11.63;5.93;;;0.80;99.90;;;;;;5045238;28;20037;-76
2022/03/19 05:20:06;;;;;;;17.58;6.50;;;1.00;99.90;;;;;;5048170;28;20064;-76
2022/03/19 05:22:32;;;;;;;13.27;5.72;;;0.80;99.90;;;;;;5047923;28;20045;-76
2022/03/19 05:24:58;;;;;;;13.07;5.25;;;0.80;99.90;;;;;;5029243;28;20569;-76
2022/03/19 05:27:25;;;;;;;13.35;5.43;;;0.80;99.90;;;;;;5049498;28;20047;-76
2022/03/19 05:29:51;;;;;;;15.10;6.00;;;0.80;99.90;;;;;;5029956;28;20102;-76
2022/03/19 05:32:18;;;;;;;14.25;5.50;;;0.80;99.90;;;;;;5046479;28;20037;-76
2022/03/19 05:34:44;;;;;;;17.35;4.80;;;0.80;99.90;;;;;;5012590;28;20037;-76
2022/03/19 05:37:11;;;;;;;18.35;5.90;;;0.80;99.90;;;;;;5047117;28;20083;-76
2022/03/19 05:39:37;;;;;;;16.30;5.80;;;0.80;99.90;;;;;;5057730;28;20126;-76
2022/03/19 05:42:05;;;;;;;22.08;6.10;;;0.80;99.90;;;;;;5029103;28;20087;-76
2022/03/19 05:44:31;;;;;;;14.35;5.32;;;0.90;99.90;;;;;;5047296;28;20130;-76
2022/03/19 05:46:58;;;;;;;15.93;5.63;;;0.90;99.90;;;;;;5024352;28;20026;-77
2022/03/19 05:49:25;;;;;;;15.55;6.05;;;0.90;99.90;;;;;;5042678;28;20073;-76
2022/03/19 05:51:51;;;;;;;17.65;5.60;;;0.90;99.90;;;;;;5047344;28;20045;-76
2022/03/19 05:54:17;;;;;;;13.73;5.05;;;0.90;99.90;;;;;;5031901;28;20560;-76
2022/03/19 05:56:43;;;;;;;10.55;5.57;;;0.90;99.90;;;;;;5048129;28;20043;-77
2022/03/19 05:59:09;;;;;;;16.75;5.70;;;1.00;99.90;;;;;;5048798;28;20300;-76
2022/03/19 06:01:35;;;;;;;12.95;6.10;;;1.00;99.90;;;;;;5045158;28;20040;-76
2022/03/19 06:04:01;;;;;;;14.55;5.45;;;1.00;99.90;;;;;;5027421;28;20494;-76
2022/03/19 06:06:27;;;;;;;12.35;5.70;;;1.00;99.90;;;;;;5029632;28;20029;-76
2022/03/19 06:08:54;;;;;;;16.25;5.72;;;1.00;99.90;;;;;;5028235;28;20043;-76
2022/03/19 06:11:20;;;;;;;19.83;5.65;;;1.10;99.90;;;;;;5046725;28;20083;-76
2022/03/19 06:13:46;;;;;;;11.52;5.38;;;1.20;99.90;;;;;;5030099;28;20072;-77
2022/03/19 06:16:12;;;;;;;26.77;5.95;;;1.20;99.90;;;;;;5046380;28;20116;-76
2022/03/19 06:18:37;;;;;;;15.45;6.00;;;1.20;99.90;;;;;;5028719;28;20048;-76
2022/03/19 06:21:04;;;;;;;13.73;5.53;;;1.30;99.90;;;;;;5046427;28;20053;-76
2022/03/19 06:23:30;;;;;;;12.00;5.93;;;1.30;99.90;;;;;;5031249;28;20132;-77
2022/03/19 06:25:56;;;;;;;17.05;6.53;;;1.30;99.90;;;;;;5044083;28;20033;-76
2022/03/19 06:28:23;;;;;;;15.38;6.68;;;1.40;99.90;;;;;;5011642;28;20032;-77
2022/03/19 06:30:49;;;;;;;20.40;6.28;;;1.50;99.90;;;;;;5045748;28;20039;-76
2022/03/19 06:33:15;;;;;;;19.80;6.45;;;1.50;99.90;;;;;;5045289;28;20041;-76
2022/03/19 06:38:30;;;;;;;18.52;6.45;;;1.70;99.90;;;;;;5043598;28;20087;-76
2022/03/19 06:40:58;;;;;;;18.90;6.47;;;1.80;99.90;;;;;;5044662;28;20064;-77
2022/03/19 06:43:24;;;;;;;20.75;7.55;;;1.80;99.90;;;;;;5027976;28;20398;-76
2022/03/19 06:45:50;;;;;;;19.70;6.68;;;1.90;99.90;;;;;;5025483;28;20582;-76
2022/03/19 06:48:16;;;;;;;15.68;6.60;;;2.00;99.90;;;;;;5028308;28;20452;-77
2022/03/19 06:50:42;;;;;;;21.58;7.05;;;2.00;99.90;;;;;;5014601;28;20069;-76
2022/03/19 06:53:08;;;;;;;21.10;7.43;;;2.20;99.90;;;;;;5028734;28;20060;-76
2022/03/19 06:55:34;;;;;;;20.63;6.57;;;2.10;99.90;;;;;;5043869;28;20491;-76
2022/03/19 06:57:59;;;;;;;16.83;7.55;;;2.20;99.90;;;;;;5031086;28;20032;-77
2022/03/19 07:00:25;;;;;;;20.23;7.85;;;2.20;99.90;;;;;;5030959;28;20124;-77
2022/03/19 07:02:53;;;;;;;19.08;6.80;;;2.30;99.90;;;;;;5007459;28;20033;-77
2022/03/19 07:05:27;;;;;;;23.73;7.97;;;2.40;99.90;;;;;;5029659;28;20048;-77
2022/03/19 07:07:55;;;;;;;18.48;7.07;;;2.40;99.90;;;;;;5037216;28;20104;-76
2022/03/19 07:10:21;;;;;;;16.65;7.28;;;2.60;99.90;;;;;;5035441;28;20033;-76
2022/03/19 07:12:50;;;;;;;16.40;6.82;;;2.70;99.90;;;;;;5019635;28;20371;-76
2022/03/19 07:15:19;;;;;;;26.65;7.55;;;2.80;99.90;;;;;;5035078;28;20045;-76
2022/03/19 07:17:46;;;;;;;16.35;6.43;;;3.00;99.90;;;;;;5015699;28;20406;-77
2022/03/19 07:20:14;;;;;;;22.23;7.60;;;3.10;99.90;;;;;;5013013;28;20083;-76
2022/03/19 07:22:55;;;;;;;22.35;8.90;;;3.20;99.90;;;;;;5023890;28;20052;-76
2022/03/19 07:25:26;;;;;;;21.98;7.80;;;3.30;99.90;;;;;;5029206;28;20029;-76
2022/03/19 07:27:58;;;;;;;25.20;7.47;;;3.50;99.90;;;;;;5045580;28;20071;-76
2022/03/19 07:30:24;;;;;;;15.52;7.45;;;3.70;99.90;;;;;;5029487;28;20041;-76
2022/03/19 07:32:50;;;;;;;15.75;6.88;;;3.80;99.90;;;;;;5046632;28;20060;-76
2022/03/19 07:35:16;;;;;;;18.73;7.28;;;3.90;99.90;;;;;;5043538;28;20041;-76
2022/03/19 07:37:43;;;;;;;21.15;7.82;;;4.10;99.90;;;;;;5013930;28;20062;-76
2022/03/19 07:40:15;;;;;;;21.25;6.90;;;4.20;99.90;;;;;;5030484;28;20044;-76
2022/03/19 07:42:41;;;;;;;16.33;6.63;;;4.50;99.90;;;;;;5028163;28;21455;-76
2022/03/19 07:45:08;;;;;;;23.08;7.13;;;4.90;99.90;;;;;;5025527;28;20041;-76
2022/03/19 07:47:34;;;;;;;16.63;6.05;;;5.30;99.90;;;;;;5044959;28;20044;-76
2022/03/19 07:50:01;;;;;;;20.15;6.57;;;5.70;99.90;;;;;;5024810;28;20029;-76
2022/03/19 07:52:27;;;;;;;19.88;6.93;;;6.30;99.90;;;;;;5044663;28;20036;-77
2022/03/19 07:54:54;;;;;;;13.98;6.28;;;7.00;99.90;;;;;;5046466;28;20044;-77
2022/03/19 07:57:20;;;;;;;16.00;6.22;;;7.50;99.90;;;;;;5010269;28;20041;-76
2022/03/19 07:59:46;;;;;;;16.08;5.15;;;7.80;99.90;;;;;;5032254;28;20056;-76
2022/03/19 08:02:12;;;;;;;19.45;6.20;;;8.00;99.90;;;;;;5024779;28;20487;-77
2022/03/19 08:04:37;;;;;;;19.35;6.10;;;8.10;99.90;;;;;;5042112;28;20045;-77
2022/03/19 08:07:03;;;;;;;15.05;5.15;;;8.50;99.90;;;;;;5038341;28;20037;-77
2022/03/19 08:09:29;;;;;;;14.18;5.18;;;8.90;99.90;;;;;;5018391;28;20037;-77
2022/03/19 08:11:56;;;;;;;12.13;4.90;;;8.80;99.90;;;;;;5000071;28;20077;-77
2022/03/19 08:14:22;;;;;;;13.20;5.13;;;9.10;99.90;;;;;;5024971;28;20064;-77
2022/03/19 08:16:48;;;;;;;13.25;5.20;;;9.20;99.90;;;;;;5031688;28;20461;-77
2022/03/19 08:19:15;;;;;;;14.30;5.35;;;9.60;99.90;;;;;;5036623;28;20044;-77
2022/03/19 08:21:44;;;;;;;16.70;5.25;;;9.50;99.90;;;;;;5065138;28;20056;-77
2022/03/19 08:24:12;;;;;;;11.00;4.82;;;10.30;99.90;;;;;;5021979;28;20128;-77
2022/03/19 08:26:38;;;;;;;17.67;5.40;;;10.70;99.90;;;;;;5014999;28;20116;-77
2022/03/19 08:29:04;;;;;;;14.80;5.22;;;11.10;99.90;;;;;;5025253;28;20486;-77
2022/03/19 08:31:31;;;;;;;12.50;5.07;;;11.90;99.90;;;;;;5046990;28;20045;-77
2022/03/19 08:33:57;;;;;;;13.20;5.03;;;12.30;99.90;;;;;;5023513;28;20502;-78
2022/03/19 08:36:24;;;;;;;14.02;4.93;;;12.70;99.90;;;;;;5020153;28;20080;-78
2022/03/19 08:41:34;;;;;;;17.30;4.97;;;13.20;98.40;;;;;;5049093;28;20045;-78
2022/03/19 08:44:00;;;;;;;11.32;4.80;;;13.40;94.60;;;;;;5056821;28;20091;-78
2022/03/19 08:46:26;;;;;;;11.20;4.25;;;13.50;97.10;;;;;;5046691;28;20044;-78
2022/03/19 08:48:52;;;;;;;11.35;4.75;;;13.60;96.30;;;;;;5045396;28;20069;-78
2022/03/19 08:54:03;;;;;;;12.98;4.50;;;14.40;95.30;;;;;;5021830;28;20398;-78
2022/03/19 08:56:30;;;;;;;12.10;4.75;;;14.70;94.70;;;;;;5032841;28;20129;-78
2022/03/19 08:58:56;;;;;;;15.63;5.10;;;14.90;94.00;;;;;;5020008;28;20495;-77
2022/03/19 09:01:22;;;;;;;17.90;4.00;;;15.20;93.10;;;;;;5039959;28;20048;-78
2022/03/19 09:03:48;;;;;;;18.60;4.95;;;15.20;91.60;;;;;;5016880;28;20119;-78
2022/03/19 09:06:14;;;;;;;11.88;4.20;;;15.40;91.00;;;;;;5023582;28;20033;-78
2022/03/19 09:08:45;;;;;;;10.45;3.67;;;15.30;90.20;;;;;;5035608;28;20061;-78
2022/03/19 09:11:11;;;;;;;11.57;3.83;;;15.40;85.20;;;;;;5077686;28;20120;-77
2022/03/19 09:13:37;;;;;;;11.48;3.50;;;15.60;86.90;;;;;;5033355;28;20045;-78
2022/03/19 09:16:03;;;;;;;10.60;3.63;;;15.70;85.80;;;;;;5012087;28;20124;-78
2022/03/19 09:18:29;;;;;;;11.07;3.28;;;15.70;83.10;;;;;;5045084;28;20090;-77
2022/03/19 09:20:56;;;;;;;11.90;3.33;;;15.50;79.50;;;;;;5030413;28;20106;-77
2022/03/19 09:23:22;;;;;;;10.18;3.60;;;15.60;80.60;;;;;;5023244;28;20037;-78
2022/03/19 09:25:48;;;;;;;10.75;3.17;;;14.90;77.50;;;;;;5027890;28;20041;-77
2022/03/19 09:28:13;;;;;;;5.35;2.70;;;14.80;76.40;;;;;;5030007;28;20034;-78
2022/03/19 09:30:39;;;;;;;10.65;3.00;;;14.70;76.90;;;;;;5047342;28;20037;-77
2022/03/19 09:33:06;;;;;;;8.68;2.78;;;14.80;76.40;;;;;;5012348;28;20112;-78
2022/03/19 09:35:33;;;;;;;9.52;3.28;;;15.00;76.50;;;;;;5046338;28;20037;-78
2022/03/19 09:37:58;;;;;;;12.10;3.58;;;15.20;74.70;;;;;;5044550;28;20397;-78
2022/03/19 09:40:24;;;;;;;11.75;3.08;;;15.30;75.70;;;;;;5023084;28;20044;-78
2022/03/19 09:42:52;;;;;;;8.18;3.10;;;15.40;75.20;;;;;;5031325;28;20041;-78
2022/03/19 09:45:19;;;;;;;10.20;2.90;;;15.60;73.80;;;;;;5004745;28;20498;-78
2022/03/19 09:47:45;;;;;;;9.32;3.60;;;15.70;73.30;;;;;;5037812;28;20041;-78
2022/03/19 09:50:11;;;;;;;10.48;3.25;;;15.80;73.50;;;;;;5030447;28;20076;-78
2022/03/19 09:52:37;;;;;;;7.38;2.50;;;16.00;71.10;;;;;;5012534;28;20304;-78
2022/03/19 09:55:04;;;;;;;11.93;3.30;;;16.20;71.40;;;;;;5017873;28;20064;-78
2022/03/19 09:57:30;;;;;;;12.70;3.70;;;16.40;70.30;;;;;;5038118;28;20037;-78
2022/03/19 09:59:57;;;;;;;10.00;3.35;;;16.70;69.30;;;;;;5017624;28;20033;-79
2022/03/19 10:02:23;;;;;;;9.60;3.15;;;16.90;68.90;;;;;;5022253;28;20046;-79
2022/03/19 10:04:53;;;;;;;8.63;3.05;;;17.10;67.30;;;;;;5028581;28;20094;-79
2022/03/19 10:10:11;;;;;;;8.60;2.83;;;17.70;67.20;;;;;;5043203;28;20124;-76
2022/03/19 10:12:39;;;;;;;8.85;2.67;;;17.70;64.50;;;;;;5025148;28;20050;-78
2022/03/19 10:15:10;;;;;;;6.63;2.78;;;17.90;65.90;;;;;;5018780;28;20034;-78
2022/03/19 10:17:38;;;;;;;7.22;2.53;;;17.60;63.30;;;;;;5043617;28;20033;-79
2022/03/19 10:20:12;;;;;;;6.25;2.50;;;18.00;61.00;;;;;;5041427;28;20502;-79
2022/03/19 10:22:43;;;;;;;7.57;3.08;;;18.10;60.60;;;;;;5019162;28;20054;-76
2022/03/19 10:25:11;;;;;;;7.32;3.00;;;18.30;61.00;;;;;;5030152;28;20038;-75
2022/03/19 10:27:42;;;;;;;8.07;2.22;;;18.00;60.20;;;;;;5045381;28;20029;-75
2022/03/19 10:30:21;;;;;;;7.05;2.95;;;18.30;59.20;;;;;;5029272;28;20071;-75
2022/03/19 10:32:51;;;;;;;6.30;2.60;;;18.70;60.40;;;;;;5044339;28;20037;-81
2022/03/19 10:35:34;;;;;;;10.30;3.78;;;18.70;60.90;;;;;;5041065;28;20128;-81
2022/03/19 10:38:22;;;;;;;7.72;2.55;;;18.90;59.70;;;;;;5028040;28;20504;-79
2022/03/19 10:40:51;;;;;;;9.95;2.97;;;18.90;59.60;;;;;;5031962;28;20095;-79
2022/03/19 10:43:19;;;;;;;9.75;2.55;;;18.50;58.70;;;;;;5027509;28;20048;-79
2022/03/19 10:45:48;;;;;;;8.68;2.60;;;18.10;56.70;;;;;;5044819;28;20111;-78
2022/03/19 10:48:18;;;;;;;7.72;2.85;;;18.20;56.80;;;;;;5029343;28;20529;-78
2022/03/19 10:50:44;;;;;;;14.38;3.20;;;18.50;58.30;;;;;;5044898;28;20453;-78
2022/03/19 10:53:11;;;;;;;7.63;3.20;;;18.50;58.20;;;;;;5047164;28;20041;-75
2022/03/19 10:55:36;;;;;;;8.73;3.08;;;18.30;58.90;;;;;;5026263;28;20118;-78
2022/03/19 10:58:02;;;;;;;7.38;2.80;;;18.00;58.60;;;;;;5030317;28;20678;-78
2022/03/19 11:00:28;;;;;;;8.82;2.58;;;17.80;60.20;;;;;;5029674;28;20044;-78
2022/03/19 11:02:57;;;;;;;5.13;2.25;;;17.30;60.00;;;;;;5013797;28;20079;-77
2022/03/19 11:05:27;;;;;;;9.50;2.65;;;17.30;57.70;;;;;;5028719;28;20489;-77
2022/03/19 11:07:54;;;;;;;6.15;2.20;;;17.10;56.50;;;;;;5047321;28;20029;-78
2022/03/19 11:10:21;;;;;;;14.73;2.67;;;17.20;58.00;;;;;;5044967;28;20157;-80
2022/03/19 11:12:50;;;;;;;6.38;2.45;;;17.30;57.70;;;;;;5021635;28;20751;-79
2022/03/19 11:15:19;;;;;;;4.05;2.40;;;17.30;56.80;;;;;;5045745;28;20040;-81
2022/03/19 11:17:49;;;;;;;4.93;2.28;;;17.50;57.30;;;;;;5052090;28;20041;-76
2022/03/19 11:20:14;;;;;;;5.15;2.58;;;17.40;55.90;;;;;;5045967;28;20115;-76
2022/03/19 11:22:43;;;;;;;5.50;2.13;;;17.60;56.10;;;;;;5044353;28;20042;-77
2022/03/19 11:25:20;;;;;;;4.55;2.20;;;17.60;56.40;;;;;;5039359;28;20048;-75
2022/03/19 11:27:52;;;;;;;5.82;2.80;;;17.50;54.90;;;;;;5022749;28;20541;-75
2022/03/19 11:30:29;;;;;;;9.02;2.60;;;17.30;56.40;;;;;;5011596;28;20038;-77
2022/03/19 11:33:18;;;;;;;6.45;2.47;;;16.70;57.00;;;;;;5011780;28;20038;-78
2022/03/19 11:35:54;;;;;;;5.97;2.63;;;16.00;56.00;;;;;;5018886;28;20430;-77
2022/03/19 11:38:24;;;;;;;6.30;2.53;;;15.90;57.30;;;;;;5047202;28;20036;-78
2022/03/19 11:40:55;;;;;;;6.55;2.58;;;15.30;57.70;;;;;;5025524;28;20509;-78
2022/03/19 11:43:24;;;;;;;6.28;2.17;;;15.50;59.90;;;;;;5028386;28;20040;-77
2022/03/19 11:45:57;;;;;;;5.00;2.40;;;15.30;60.00;;;;;;5044720;28;20025;-73
2022/03/19 11:48:36;;;;;;;3.88;1.85;;;15.30;58.50;;;;;;5043534;28;20155;-73
2022/03/19 11:51:33;;;;;;;8.77;2.50;;;15.30;60.70;;;;;;5025694;28;20044;-74
2022/03/19 11:54:15;;;;;;;4.45;2.08;;;15.10;58.10;;;;;;5034772;28;20042;-73
2022/03/19 11:56:40;;;;;;;5.07;2.10;;;15.10;56.80;;;;;;5032469;28;20106;-76
2022/03/19 11:59:31;;;;;;;6.35;2.30;;;14.90;59.10;;;;;;5023939;28;20045;-74
2022/03/19 12:02:00;;;;;;;5.68;2.03;;;15.10;59.10;;;;;;5018310;28;20109;-76
2022/03/19 12:04:45;;;;;;;4.82;2.15;;;15.10;58.70;;;;;;5045012;28;20033;-76
2022/03/19 12:07:12;;;;;;;5.45;2.55;;;15.00;59.20;;;;;;5031250;28;20378;-77
2022/03/19 12:09:40;;;;;;;4.72;2.22;;;15.00;59.90;;;;;;5033141;28;20077;-79
2022/03/19 12:12:23;;;;;;;6.32;2.55;;;15.00;59.80;;;;;;5029838;28;20410;-77
2022/03/19 12:14:50;;;;;;;4.43;2.22;;;15.10;59.40;;;;;;5019983;28;20518;-76
2022/03/19 12:17:28;;;;;;;4.53;2.42;;;15.20;60.00;;;;;;5014113;28;20056;-76
2022/03/19 12:20:04;;;;;;;5.15;2.20;;;15.20;58.20;;;;;;5035218;28;20037;-79
2022/03/19 12:22:38;;;;;;;3.95;1.98;;;15.30;58.40;;;;;;5028464;28;20053;-78
2022/03/19 12:25:18;;;;;;;4.60;1.83;;;15.30;58.80;;;;;;5034935;28;20122;-78
2022/03/19 12:27:52;;;;;;;4.40;2.08;;;15.30;59.50;;;;;;5034870;28;20588;-78
2022/03/19 12:30:20;;;;;;;7.55;2.25;;;15.30;59.60;;;;;;5030757;28;20048;-77
2022/03/19 12:32:55;;;;;;;4.28;2.10;;;15.30;59.40;;;;;;5027771;28;20033;-76
2022/03/19 12:35:22;;;;;;;4.10;2.25;;;15.30;58.70;;;;;;5017080;28;20037;-77
2022/03/19 12:37:56;;;;;;;4.45;2.20;;;15.20;59.70;;;;;;5036204;28;20112;-76
2022/03/19 12:40:27;;;;;;;5.35;2.03;;;15.30;59.60;;;;;;5017247;28;20502;-76
2022/03/19 12:42:58;;;;;;;5.43;1.88;;;15.40;58.90;;;;;;5026477;28;20456;-76
2022/03/19 12:45:41;;;;;;;5.40;2.38;;;15.50;58.80;;;;;;5045283;28;20029;-76
2022/03/19 12:48:12;;;;;;;3.33;1.85;;;15.80;58.80;;;;;;5021532;28;20037;-76
2022/03/19 12:50:38;;;;;;;4.60;2.00;;;15.70;58.20;;;;;;5023348;28;20134;-77
2022/03/19 12:53:05;;;;;;;4.45;2.00;;;15.70;58.20;;;;;;5006412;28;20038;-77
2022/03/19 12:55:31;;;;;;;4.53;1.67;;;15.70;58.40;;;;;;5034134;28;20045;-78
2022/03/19 12:57:58;;;;;;;3.92;1.80;;;15.60;57.00;;;;;;5024489;28;20121;-81
2022/03/19 13:00:25;;;;;;;3.22;1.70;;;15.50;57.30;;;;;;5014712;28;20321;-77
2022/03/19 13:02:52;;;;;;;5.75;2.45;;;15.50;57.60;;;;;;5031159;28;20116;-79
2022/03/19 13:05:18;;;;;;;3.53;1.85;;;15.70;57.80;;;;;;5029547;28;20045;-79
2022/03/19 13:08:07;;;;;;;4.00;1.88;;;15.80;57.40;;;;;;5004473;28;20025;-80